Time;durP1;ratioP1;P1;durP2;ratioP2;P2;SDS_P1;SDS_P2;PMS_P1;PMS_P2;Temp;Humidity;BMP_temperature;BMP_pressure;BME280_temperature;BME280_humidity;BME280_pressure;Samples;Min_cycle;Max_cycle;Signal;HPM_P1;HPM_P2
2021/06/09 00:01:37;;;;;;;12.53;9.35;;;;;;;13.60;100.00;98916.53;1694724;83;20992;-63
2021/06/09 00:04:04;;;;;;;12.00;9.20;;;;;;;13.62;100.00;98913.53;1706658;83;20928;-62
2021/06/09 00:06:30;;;;;;;16.02;10.25;;;;;;;13.56;100.00;98915.50;1708301;82;21570;-62
2021/06/09 00:08:58;;;;;;;18.25;10.00;;;;;;;13.47;100.00;98927.48;1695594;83;21150;-61
2021/06/09 00:11:25;;;;;;;12.40;11.10;;;;;;;13.37;100.00;98916.00;1685421;83;20987;-62
2021/06/09 00:13:51;;;;;;;17.48;12.35;;;;;;;13.27;100.00;98921.75;1707066;83;21458;-62
2021/06/09 00:16:20;;;;;;;11.00;9.75;;;;;;;13.20;100.00;98912.38;1709607;83;20999;-62
2021/06/09 00:18:47;;;;;;;11.50;10.32;;;;;;;13.12;100.00;98917.06;1715342;82;20995;-61
2021/06/09 00:21:15;;;;;;;13.55;10.20;;;;;;;13.02;100.00;98913.38;1710131;83;21157;-62
2021/06/09 00:23:42;;;;;;;16.07;11.78;;;;;;;12.93;100.00;98911.04;1707562;83;20972;-61
2021/06/09 00:26:09;;;;;;;15.37;11.23;;;;;;;12.84;100.00;98920.30;1689858;83;21462;-62
2021/06/09 00:28:36;;;;;;;13.35;11.45;;;;;;;12.79;100.00;98914.96;1715229;83;20908;-62
2021/06/09 00:31:05;;;;;;;12.93;10.20;;;;;;;12.74;100.00;98914.19;1719741;82;20876;-61
2021/06/09 00:33:32;;;;;;;14.40;10.15;;;;;;;12.70;100.00;98911.27;1700024;82;21872;-62
2021/06/09 00:35:59;;;;;;;13.98;10.00;;;;;;;12.71;100.00;98912.86;1708405;83;21523;-62
2021/06/09 00:38:27;;;;;;;11.90;9.65;;;;;;;12.67;100.00;98909.70;1712221;83;20928;-64
2021/06/09 00:40:58;;;;;;;9.73;8.83;;;;;;;12.64;100.00;98905.14;1705627;83;28605;-64
2021/06/09 00:43:27;;;;;;;15.98;10.23;;;;;;;12.70;100.00;98907.78;1706646;82;21122;-64
2021/06/09 00:45:56;;;;;;;10.90;9.30;;;;;;;12.75;100.00;98905.84;1658570;84;22538;-63
2021/06/09 00:48:26;;;;;;;13.03;10.60;;;;;;;12.69;100.00;98908.33;1636708;86;21075;-63
2021/06/09 00:51:02;;;;;;;14.28;10.72;;;;;;;12.65;100.00;98908.08;1624211;86;21124;-64
2021/06/09 00:53:38;;;;;;;11.70;10.58;;;;;;;12.59;100.00;98909.22;1689483;83;20936;-64
2021/06/09 00:56:10;;;;;;;12.35;8.75;;;;;;;12.58;100.00;98900.87;1709796;83;20967;-63
2021/06/09 00:58:40;;;;;;;17.70;9.95;;;;;;;12.55;100.00;98897.41;1702834;82;21113;-62
2021/06/09 01:01:07;;;;;;;;;;;;;;;12.62;100.00;98890.36;1720877;83;20888;-62
2021/06/09 01:03:34;;;;;;;11.80;10.08;;;;;;;12.63;100.00;98895.98;1710953;82;20114;-62
2021/06/09 01:06:04;;;;;;;11.22;10.05;;;;;;;12.69;100.00;98896.22;1714494;83;20952;-63
2021/06/09 01:08:36;;;;;;;13.00;9.85;;;;;;;12.76;100.00;98898.55;1713109;82;20881;-63
2021/06/09 01:11:17;;;;;;;10.45;9.45;;;;;;;12.78;100.00;98906.61;1707911;83;21154;-63
2021/06/09 01:13:44;;;;;;;12.07;10.00;;;;;;;12.76;100.00;98910.13;1707460;82;21427;-62
2021/06/09 01:16:10;;;;;;;11.33;10.10;;;;;;;12.71;100.00;98903.98;1717990;82;20975;-63
2021/06/09 01:18:37;;;;;;;16.77;11.30;;;;;;;12.70;100.00;98903.19;1711699;82;21098;-63
2021/06/09 01:21:04;;;;;;;11.50;10.30;;;;;;;12.62;100.00;98899.23;1712652;83;20908;-63
2021/06/09 01:23:31;;;;;;;11.57;10.32;;;;;;;12.57;100.00;98901.17;1720868;82;21197;-62
2021/06/09 01:25:59;;;;;;;15.30;9.70;;;;;;;12.54;100.00;98905.75;1718316;83;21003;-63
2021/06/09 01:28:25;;;;;;;11.25;10.10;;;;;;;12.50;100.00;98898.80;1718612;82;20912;-63
2021/06/09 01:30:53;;;;;;;14.03;10.88;;;;;;;12.39;100.00;98905.33;1704930;83;21562;-63
2021/06/09 01:33:20;;;;;;;11.83;10.72;;;;;;;12.32;100.00;98907.54;1712090;83;21550;-62
2021/06/09 01:35:51;;;;;;;10.68;9.58;;;;;;;12.26;100.00;98913.51;1708052;83;21515;-63
2021/06/09 01:38:17;;;;;;;15.40;10.45;;;;;;;12.25;100.00;98911.91;1700381;83;20948;-64
2021/06/09 01:40:44;;;;;;;11.48;10.38;;;;;;;12.29;100.00;98906.22;1700290;83;21097;-63
2021/06/09 01:43:10;;;;;;;13.18;10.48;;;;;;;12.28;100.00;98906.52;1695015;83;20978;-63
2021/06/09 01:45:38;;;;;;;13.53;11.33;;;;;;;12.22;100.00;98907.07;1717280;83;20881;-63
2021/06/09 01:48:06;;;;;;;14.18;10.80;;;;;;;12.15;100.00;98914.66;1701691;83;21094;-63
2021/06/09 01:50:34;;;;;;;18.62;11.93;;;;;;;12.10;100.00;98919.55;1710919;83;21384;-63
2021/06/09 01:53:03;;;;;;;10.85;9.78;;;;;;;12.07;100.00;98921.43;1709960;83;21447;-63
2021/06/09 01:55:34;;;;;;;13.32;10.38;;;;;;;12.04;100.00;98918.51;1698096;83;20988;-63
2021/06/09 01:58:02;;;;;;;14.87;10.48;;;;;;;12.07;100.00;98924.67;1705666;83;20893;-64
2021/06/09 02:00:33;;;;;;;12.03;9.83;;;;;;;12.10;100.00;98924.10;1701742;83;22046;-63
2021/06/09 02:02:59;;;;;;;12.70;11.05;;;;;;;12.13;100.00;98931.64;1718463;82;20922;-62
2021/06/09 02:05:31;;;;;;;13.15;10.43;;;;;;;12.18;100.00;98931.60;1710694;83;20951;-64
2021/06/09 02:07:59;;;;;;;17.05;11.25;;;;;;;12.27;100.00;98919.69;1705036;83;20897;-63
2021/06/09 02:10:26;;;;;;;12.00;10.38;;;;;;;12.37;100.00;98923.12;1707701;82;20935;-64
2021/06/09 02:12:59;;;;;;;12.65;11.15;;;;;;;12.45;100.00;98919.03;1709135;83;21156;-64
2021/06/09 02:15:26;;;;;;;15.10;10.65;;;;;;;12.55;100.00;98927.02;1701132;83;20943;-63
2021/06/09 02:18:08;;;;;;;11.65;10.08;;;;;;;12.61;100.00;98930.45;1681642;83;20980;-63
2021/06/09 02:20:28;;;;;;;11.12;9.83;;;;;;;12.67;100.00;98929.89;1702996;83;21000;-64
2021/06/09 02:22:55;;;;;;;11.22;10.23;;;;;;;12.76;100.00;98942.98;1711242;83;21008;-63
2021/06/09 02:25:22;;;;;;;13.45;9.73;;;;;;;12.80;100.00;98942.69;1694328;83;21245;-64
2021/06/09 02:27:49;;;;;;;11.35;10.28;;;;;;;12.85;100.00;98939.95;1719567;81;21168;-62
2021/06/09 02:30:18;;;;;;;13.25;10.48;;;;;;;12.91;100.00;98947.43;1687220;85;20901;-64
2021/06/09 02:32:45;;;;;;;20.17;10.10;;;;;;;12.99;100.00;98950.88;1689325;84;21089;-63
2021/06/09 02:35:18;;;;;;;11.78;9.50;;;;;;;13.04;100.00;98957.01;1724402;82;20880;-64
2021/06/09 02:37:51;;;;;;;12.80;9.63;;;;;;;13.08;100.00;98957.23;1710210;83;21160;-63
2021/06/09 02:40:21;;;;;;;17.42;8.95;;;;;;;13.13;100.00;98953.69;1715689;83;20979;-64
2021/06/09 02:42:49;;;;;;;10.78;9.40;;;;;;;13.15;100.00;98951.52;1709974;82;21044;-64
2021/06/09 02:45:19;;;;;;;9.78;8.85;;;;;;;13.16;100.00;98951.78;1718583;83;20975;-64
2021/06/09 02:47:50;;;;;;;12.18;9.33;;;;;;;13.18;100.00;98948.23;1702663;83;21065;-64
2021/06/09 02:50:18;;;;;;;14.25;10.03;;;;;;;13.18;100.00;98938.81;1718248;82;21119;-63
2021/06/09 02:53:12;;;;;;;10.63;9.45;;;;;;;13.23;100.00;98940.13;1716959;82;20888;-63
2021/06/09 02:56:10;;;;;;;12.03;9.90;;;;;;;13.29;100.00;98949.78;1706360;82;21065;-64
2021/06/09 02:59:04;;;;;;;14.95;10.60;;;;;;;13.42;100.00;98949.08;1714715;82;21034;-64
2021/06/09 03:01:47;;;;;;;11.57;10.28;;;;;;;13.55;100.00;98954.35;1705777;83;21430;-64
2021/06/09 03:04:31;;;;;;;16.70;11.18;;;;;;;13.67;100.00;98959.31;1711856;83;21248;-64
2021/06/09 03:07:06;;;;;;;12.75;10.85;;;;;;;13.77;100.00;98958.38;1700239;83;21335;-64
2021/06/09 03:10:03;;;;;;;14.53;10.72;;;;;;;13.87;100.00;98957.72;1709742;83;21019;-63
2021/06/09 03:13:05;;;;;;;11.63;10.30;;;;;;;14.05;100.00;98962.08;1721355;82;21475;-65
2021/06/09 03:15:49;;;;;;;12.23;9.78;;;;;;;14.22;100.00;98961.02;1654082;86;21075;-64
2021/06/09 03:18:38;;;;;;;11.08;9.83;;;;;;;14.38;100.00;98967.02;1657738;84;21154;-65
2021/06/09 03:21:09;;;;;;;13.35;10.80;;;;;;;14.45;100.00;98959.88;1662935;85;21537;-65
2021/06/09 03:23:56;;;;;;;11.35;10.23;;;;;;;14.50;100.00;98961.14;1657179;86;20995;-65
2021/06/09 03:26:51;;;;;;;11.75;9.95;;;;;;;14.64;100.00;98963.94;1656086;84;20920;-68
2021/06/09 03:29:38;;;;;;;11.12;9.93;;;;;;;14.78;100.00;98964.23;1658835;86;20985;-67
2021/06/09 03:32:08;;;;;;;13.55;9.13;;;;;;;14.85;100.00;98966.56;1660904;86;21783;-64
2021/06/09 03:34:52;;;;;;;12.23;9.50;;;;;;;14.93;100.00;98969.12;1642811;85;20964;-63
2021/06/09 03:37:20;;;;;;;10.53;9.53;;;;;;;15.01;100.00;98972.48;1649491;86;21570;-67
2021/06/09 03:39:47;;;;;;;10.55;8.93;;;;;;;15.17;100.00;98974.39;1647555;86;20944;-66
2021/06/09 03:42:17;;;;;;;13.58;10.95;;;;;;;15.36;100.00;98975.64;1645092;86;21457;-67
2021/06/09 03:44:53;;;;;;;11.48;10.18;;;;;;;15.49;100.00;98980.83;1654587;86;21148;-65
2021/06/09 03:47:20;;;;;;;9.83;8.93;;;;;;;15.69;100.00;98974.22;1650427;86;21060;-66
2021/06/09 03:49:48;;;;;;;11.63;8.93;;;;;;;15.95;100.00;98973.97;1629865;86;21147;-66
2021/06/09 03:52:15;;;;;;;12.05;10.03;;;;;;;16.16;100.00;98970.25;1653444;85;20964;-71
2021/06/09 03:54:46;;;;;;;11.53;9.47;;;;;;;16.31;100.00;98975.88;1666949;85;21516;-66
2021/06/09 03:57:13;;;;;;;10.32;8.78;;;;;;;16.39;100.00;98976.52;1673863;84;21243;-67
2021/06/09 03:59:39;;;;;;;9.60;8.60;;;;;;;16.43;100.00;98973.44;1673631;84;21107;-67
2021/06/09 04:02:08;;;;;;;9.70;8.80;;;;;;;16.50;100.00;98975.72;1658701;84;21079;-67
2021/06/09 04:04:35;;;;;;;11.10;8.80;;;;;;;16.57;100.00;98978.02;1658199;84;21474;-71
2021/06/09 04:07:02;;;;;;;10.55;8.83;;;;;;;16.71;100.00;98986.89;1664049;84;20979;-67
2021/06/09 04:09:29;;;;;;;8.65;7.75;;;;;;;16.80;100.00;98982.90;1680807;85;21146;-71
2021/06/09 04:12:01;;;;;;;9.53;7.80;;;;;;;16.84;100.00;98983.89;1675631;84;20981;-67
2021/06/09 04:14:44;;;;;;;9.23;8.25;;;;;;;16.83;100.00;98987.70;1693734;83;21101;-69
2021/06/09 04:17:10;;;;;;;11.30;7.67;;;;;;;16.91;100.00;98987.77;1721405;82;20984;-69
2021/06/09 04:19:42;;;;;;;9.65;7.92;;;;;;;17.01;100.00;98983.20;1706521;83;21058;-71
2021/06/09 04:22:09;;;;;;;9.38;7.85;;;;;;;17.17;100.00;98987.10;1712040;82;21939;-71
2021/06/09 04:24:38;;;;;;;14.63;8.23;;;;;;;17.29;100.00;98994.67;1692918;83;21058;-67
2021/06/09 04:27:10;;;;;;;7.65;6.95;;;;;;;17.33;100.00;98997.01;1708419;83;20893;-70
2021/06/09 04:29:37;;;;;;;8.70;7.90;;;;;;;17.29;100.00;98993.31;1704908;83;21042;-75
2021/06/09 04:32:06;;;;;;;9.13;7.37;;;;;;;17.26;100.00;98995.30;1717262;82;21498;-68
2021/06/09 04:34:53;;;;;;;10.68;7.70;;;;;;;17.33;100.00;98995.66;1709079;82;21165;-72
2021/06/09 04:37:24;;;;;;;8.65;7.67;;;;;;;17.47;100.00;98991.50;1699554;83;21011;-70
2021/06/09 04:39:52;;;;;;;9.65;8.10;;;;;;;17.73;100.00;98996.44;1696112;83;20956;-69
2021/06/09 04:42:20;;;;;;;12.10;9.73;;;;;;;18.02;100.00;98996.47;1715238;82;21779;-70
2021/06/09 04:44:47;;;;;;;9.40;7.03;;;;;;;18.10;100.00;98998.39;1717800;83;20880;-71
2021/06/09 04:47:14;;;;;;;8.23;7.33;;;;;;;18.22;100.00;98997.77;1707801;83;21204;-72
2021/06/09 04:49:44;;;;;;;7.78;6.33;;;;;;;18.32;100.00;99000.74;1713807;81;20983;-73
2021/06/09 04:52:12;;;;;;;11.53;6.78;;;;;;;18.49;100.00;99003.47;1715798;82;20937;-73
2021/06/09 04:54:38;;;;;;;9.98;6.67;;;;;;;18.71;100.00;99007.14;1707836;83;21067;-73
2021/06/09 04:57:07;;;;;;;8.25;6.42;;;;;;;18.89;100.00;99006.59;1713346;83;20916;-72
2021/06/09 04:59:34;;;;;;;8.00;5.62;;;;;;;18.99;100.00;99011.15;1693934;82;21164;-71
2021/06/09 05:02:00;;;;;;;6.97;6.28;;;;;;;19.14;100.00;99005.76;1713983;82;21676;-71
2021/06/09 05:04:27;;;;;;;8.80;6.35;;;;;;;19.00;100.00;99004.58;1706442;83;20888;-69
2021/06/09 05:06:54;;;;;;;10.83;6.40;;;;;;;18.96;100.00;99001.46;1704336;83;20996;-72
2021/06/09 05:09:30;;;;;;;7.60;6.28;;;;;;;18.89;100.00;99008.77;1690238;83;21007;-73
2021/06/09 05:12:16;;;;;;;8.25;7.40;;;;;;;19.01;100.00;99008.91;1669606;84;21992;-71
2021/06/09 05:15:04;;;;;;;11.08;7.08;;;;;;;19.01;100.00;99008.91;1713690;81;21607;-73
2021/06/09 05:17:34;;;;;;;8.05;7.17;;;;;;;19.00;100.00;99010.02;1716532;82;21118;-73
2021/06/09 05:20:01;;;;;;;11.33;7.53;;;;;;;18.87;100.00;99012.37;1696917;83;21522;-69
2021/06/09 05:22:39;;;;;;;10.32;7.15;;;;;;;18.92;100.00;99011.41;1708726;82;21414;-69
2021/06/09 05:25:09;;;;;;;9.65;7.08;;;;;;;18.96;100.00;99014.52;1710215;83;21146;-74
2021/06/09 05:27:40;;;;;;;9.80;6.25;;;;;;;18.96;100.00;99014.52;1701774;83;21066;-74
2021/06/09 05:30:08;;;;;;;7.78;6.20;;;;;;;19.06;100.00;99018.26;1693965;83;20981;-71
2021/06/09 05:32:34;;;;;;;;;;;;;;;19.05;100.00;99009.84;1723838;82;21043;-73
2021/06/09 05:35:01;;;;;;;5.25;4.75;;;;;;;19.17;100.00;99014.62;1685638;83;20085;-74
2021/06/09 05:37:29;;;;;;;7.45;5.75;;;;;;;19.37;100.00;99009.04;1716642;81;21966;-74
2021/06/09 05:39:59;;;;;;;6.10;5.50;;;;;;;19.43;100.00;99011.84;1711111;83;20877;-71
2021/06/09 05:42:25;;;;;;;5.83;5.05;;;;;;;19.68;100.00;99018.33;1699788;81;21407;-73
2021/06/09 05:44:54;;;;;;;6.30;5.45;;;;;;;19.99;100.00;99021.31;1727434;81;21059;-73
2021/06/09 05:47:21;;;;;;;9.70;6.30;;;;;;;20.11;100.00;99021.94;1709424;82;21047;-76
2021/06/09 05:49:49;;;;;;;6.00;5.22;;;;;;;20.29;100.00;99026.73;1728550;82;21140;-71
2021/06/09 05:52:16;;;;;;;6.45;5.58;;;;;;;20.57;100.00;99023.50;1725665;82;20974;-72
2021/06/09 05:54:45;;;;;;;8.68;5.55;;;;;;;20.68;100.00;99017.89;1737733;82;21023;-72
2021/06/09 05:57:14;;;;;;;6.08;4.60;;;;;;;20.71;100.00;99033.58;1730481;82;20946;-68
2021/06/09 05:59:40;;;;;;;9.48;5.90;;;;;;;20.43;100.00;99025.91;1735137;82;21096;-73
2021/06/09 06:02:08;;;;;;;12.07;5.50;;;;;;;20.41;100.00;99028.17;1663036;84;21829;-71
2021/06/09 06:04:35;;;;;;;7.70;6.12;;;;;;;20.45;100.00;99026.36;1733233;82;20912;-69
2021/06/09 06:07:02;;;;;;;9.38;5.75;;;;;;;20.42;100.00;99025.66;1701716;82;21552;-70
2021/06/09 06:09:38;;;;;;;7.83;5.13;;;;;;;20.52;100.00;99025.27;1723979;82;21572;-75
2021/06/09 06:12:08;;;;;;;6.78;5.35;;;;;;;20.73;100.00;99032.69;1718300;82;21355;-72
2021/06/09 06:14:40;;;;;;;5.42;4.17;;;;;;;20.71;100.00;99028.13;1699959;82;21069;-72
2021/06/09 06:17:08;;;;;;;6.22;5.20;;;;;;;20.63;100.00;99031.16;1713135;81;20916;-68
2021/06/09 06:19:49;;;;;;;9.88;5.42;;;;;;;20.74;100.00;99032.33;1718766;81;21121;-71
2021/06/09 06:22:15;;;;;;;5.50;4.90;;;;;;;21.02;100.00;99031.78;1708165;81;20999;-73
2021/06/09 06:24:46;;;;;;;7.53;5.27;;;;;;;21.26;100.00;99026.94;1713348;82;20973;-73
2021/06/09 06:27:17;;;;;;;6.45;4.87;;;;;;;21.43;100.00;99024.62;1676508;83;21843;-71
2021/06/09 06:29:49;;;;;;;11.00;5.03;;;;;;;21.38;99.04;99036.52;1681915;83;20935;-69
2021/06/09 06:32:21;;;;;;;9.83;4.95;;;;;;;21.48;97.10;99039.98;1678465;83;20987;-69
2021/06/09 06:34:49;;;;;;;15.30;5.25;;;;;;;21.60;97.61;99040.80;1698892;81;21559;-74
2021/06/09 06:37:20;;;;;;;9.13;5.00;;;;;;;21.66;98.14;99035.14;1706540;82;21074;-72
2021/06/09 06:39:46;;;;;;;7.17;5.17;;;;;;;21.97;96.65;99040.81;1684477;83;21091;-71
2021/06/09 06:42:15;;;;;;;6.78;3.92;;;;;;;21.99;94.07;99041.27;1700784;82;21316;-69
2021/06/09 06:44:43;;;;;;;8.23;4.50;;;;;;;21.97;93.13;99042.17;1704532;81;21058;-71
2021/06/09 06:47:09;;;;;;;12.80;4.60;;;;;;;21.88;93.44;99039.33;1633468;86;20946;-70
2021/06/09 06:49:42;;;;;;;6.65;4.83;;;;;;;21.78;92.38;99035.94;1647224;86;21027;-68
2021/06/09 06:52:09;;;;;;;7.03;4.35;;;;;;;21.48;95.28;99037.25;1646269;85;21201;-70
2021/06/09 06:54:37;;;;;;;9.93;4.72;;;;;;;21.27;96.96;99040.04;1688501;83;21067;-74
2021/06/09 06:57:04;;;;;;;;;;;;;;;21.50;98.28;99040.45;1696091;83;21149;-72
2021/06/09 11:43:18;;;;;;;5.10;1.82;;;;;;;21.23;76.09;98921.76;1740825;81;20087;-70
2021/06/09 11:46:11;;;;;;;2.37;1.70;;;;;;;21.38;74.52;98920.50;1659220;85;21029;-66
2021/06/09 11:48:39;;;;;;;2.20;1.98;;;;;;;21.47;75.07;98919.64;1565051;91;20948;-66
2021/06/09 11:51:20;;;;;;;3.72;2.40;;;;;;;21.80;76.23;98920.30;1559896;91;21940;-66
2021/06/09 11:53:49;;;;;;;2.47;2.22;;;;;;;22.05;72.56;98908.75;1573405;91;20887;-67
2021/06/09 11:56:32;;;;;;;17.65;3.50;;;;;;;22.37;75.51;98925.30;1551297;91;20986;-66
2021/06/09 11:59:09;;;;;;;5.17;4.67;;;;;;;22.55;69.40;98936.73;1547557;92;21078;-67
2021/06/09 12:01:59;;;;;;;5.08;4.35;;;;;;;22.81;73.92;98927.27;1524514;93;21025;-70
2021/06/09 12:08:19;;;;;;;11.28;3.02;;;;;;;21.88;76.06;98930.88;1490942;94;20944;-69
2021/06/09 12:34:31;;;;;;;2.67;2.42;;;;;;;22.72;67.63;98906.91;1658848;83;89871;-69
2021/06/09 12:37:10;;;;;;;3.83;2.22;;;;;;;23.09;60.91;98920.39;1657714;84;21062;-68
2021/06/09 12:39:38;;;;;;;3.25;2.20;;;;;;;23.26;60.37;98906.34;1655927;86;21573;-75
2021/06/09 12:42:12;;;;;;;2.77;2.42;;;;;;;23.30;56.12;98915.45;1656834;86;21028;-70
2021/06/09 12:44:48;;;;;;;2.70;2.12;;;;;;;23.36;56.86;98906.97;1656341;86;21612;-71
2021/06/09 12:47:12;;;;;;;3.22;1.87;;;;;;;23.65;53.69;98911.17;1628334;86;21094;-69
2021/06/09 12:49:39;;;;;;;15.18;2.30;;;;;;;23.68;52.57;98911.81;1654827;85;21101;-73
2021/06/09 12:52:14;;;;;;;8.30;3.35;;;;;;;23.75;54.02;98907.91;1652082;86;21327;-72
2021/06/09 12:54:54;;;;;;;7.72;3.33;;;;;;;23.93;55.33;98904.17;1651396;86;20955;-70
2021/06/09 12:57:38;;;;;;;2.95;2.75;;;;;;;23.45;60.46;98903.48;1616583;86;21055;-69
2021/06/09 13:00:45;;;;;;;8.65;3.40;;;;;;;23.53;59.71;98901.11;1636181;86;20916;-70
2021/06/09 13:03:38;;;;;;;2.98;2.10;;;;;;;23.24;60.96;98903.16;1606825;89;21537;-68
2021/06/09 13:06:23;;;;;;;6.70;4.12;;;;;;;23.26;60.68;98913.77;1652581;85;21529;-69
2021/06/09 13:08:54;;;;;;;2.87;2.52;;;;;;;23.46;56.81;98908.58;1677578;84;21008;-65
2021/06/09 13:11:33;;;;;;;3.83;2.70;;;;;;;23.61;56.87;98920.66;1682330;85;21104;-74
2021/06/09 13:14:06;;;;;;;2.22;1.70;;;;;;;24.00;57.78;98926.84;1681366;83;21500;-71
2021/06/09 13:16:39;;;;;;;1.65;1.55;;;;;;;24.18;54.04;98923.33;1646482;87;20933;-74
2021/06/09 13:19:12;;;;;;;2.27;1.20;;;;;;;23.94;54.12;98922.22;1647788;87;20909;-72
2021/06/09 13:21:50;;;;;;;3.45;1.30;;;;;;;23.61;54.52;98919.88;1648299;86;20956;-74
2021/06/09 13:24:38;;;;;;;7.60;1.82;;;;;;;23.11;53.37;98919.47;1647349;84;21082;-71
2021/06/09 13:27:18;;;;;;;2.55;1.47;;;;;;;22.76;57.60;98920.66;1594372;90;20960;-69
2021/06/09 13:29:54;;;;;;;3.13;1.60;;;;;;;22.55;61.09;98919.53;1595475;90;21877;-70
2021/06/09 13:32:31;;;;;;;4.42;1.55;;;;;;;22.38;63.06;98911.05;1612728;87;21175;-69
2021/06/09 13:35:26;;;;;;;10.30;1.45;;;;;;;22.38;64.42;98915.95;1612861;89;20983;-71
2021/06/09 13:38:16;;;;;;;4.62;1.62;;;;;;;22.35;61.16;98903.56;1677978;84;21016;-74
2021/06/09 13:40:43;;;;;;;7.33;1.20;;;;;;;22.17;60.56;98899.72;1630173;87;20991;-69
2021/06/09 13:43:12;;;;;;;3.22;1.22;;;;;;;21.95;58.21;98896.12;1608738;87;21039;-69
2021/06/09 13:45:49;;;;;;;3.87;1.57;;;;;;;21.64;59.16;98903.02;1631210;87;21112;-69
2021/06/09 13:48:19;;;;;;;1.77;1.47;;;;;;;21.54;59.35;98907.59;1634385;87;20968;-69
2021/06/09 13:51:07;;;;;;;1.90;1.17;;;;;;;21.45;59.90;98902.23;1605559;89;21015;-69
2021/06/09 13:54:02;;;;;;;2.42;1.30;;;;;;;21.45;60.30;98902.23;1604850;89;21098;-70
2021/06/09 13:56:42;;;;;;;1.50;1.40;;;;;;;21.38;62.15;98907.43;1589426;89;21129;-68
2021/06/09 13:59:16;;;;;;;5.45;2.30;;;;;;;21.30;62.52;98925.52;1528055;93;21175;-70
2021/06/09 14:01:45;;;;;;;6.80;2.05;;;;;;;21.28;63.03;98941.43;1524603;93;21069;-69
2021/06/09 14:04:20;;;;;;;2.52;1.85;;;;;;;21.17;63.97;98954.73;1548644;88;21033;-70
2021/06/09 14:07:09;;;;;;;3.67;2.15;;;;;;;21.19;63.43;98955.20;1576716;89;21085;-69
2021/06/09 14:09:38;;;;;;;5.75;1.90;;;;;;;21.16;64.69;98964.03;1602814;88;20982;-69
2021/06/09 14:12:09;;;;;;;3.67;1.98;;;;;;;21.11;64.28;98970.28;1600215;89;21152;-71
2021/06/09 14:14:46;;;;;;;2.95;2.30;;;;;;;21.02;66.50;98970.94;1622559;88;21005;-71
2021/06/09 14:17:26;;;;;;;3.47;2.75;;;;;;;20.98;67.60;98966.16;1603006;88;21030;-69
2021/06/09 14:20:28;;;;;;;3.10;2.80;;;;;;;20.82;71.17;98965.77;1614150;86;21443;-68
2021/06/09 14:23:00;;;;;;;3.33;3.02;;;;;;;20.90;73.01;98969.80;1547929;92;21026;-68
2021/06/09 14:25:57;;;;;;;6.37;3.90;;;;;;;20.93;77.41;98962.86;1514323;93;21164;-67
2021/06/09 14:28:38;;;;;;;10.08;4.00;;;;;;;20.87;79.53;98969.11;1491220;94;21239;-68
2021/06/09 14:31:08;;;;;;;4.97;3.87;;;;;;;20.91;83.71;98966.48;1492988;94;21036;-68
2021/06/09 14:36:28;;;;;;;5.50;3.92;;;;;;;20.75;87.80;98974.52;1504268;90;21060;-68
2021/06/09 14:38:58;;;;;;;4.85;4.35;;;;;;;20.91;89.10;98977.40;1536014;90;21191;-67
2021/06/09 14:41:49;;;;;;;5.28;4.60;;;;;;;20.93;89.10;98980.59;1543785;92;21056;-68
2021/06/09 14:45:00;;;;;;;5.33;4.67;;;;;;;21.03;90.96;98978.80;1514609;92;21172;-69
2021/06/09 14:52:44;;;;;;;5.70;4.67;;;;;;;21.91;87.91;98990.86;1450202;98;21011;-69
2021/06/09 14:55:25;;;;;;;;;;;;;;;22.35;86.73;98978.16;1425554;99;21499;-70
2021/06/09 14:58:23;;;;;;;8.90;4.28;;;;;;;23.10;82.84;98979.45;1431640;98;20443;-69
2021/06/09 15:01:24;;;;;;;5.78;4.70;;;;;;;23.25;84.48;98986.91;1401828;101;21532;-70
2021/06/09 15:04:13;;;;;;;4.87;4.22;;;;;;;23.00;81.94;98985.44;1393484;101;21147;-69
2021/06/09 15:06:50;;;;;;;7.08;4.20;;;;;;;23.23;82.90;98989.77;1418343;100;21676;-71
2021/06/09 15:09:17;;;;;;;8.20;5.08;;;;;;;23.57;79.77;98987.46;1375443;102;21190;-70
2021/06/09 15:11:49;;;;;;;8.70;4.53;;;;;;;23.27;79.91;98967.37;1368704;103;21171;-72
2021/06/09 15:14:38;;;;;;;8.85;5.35;;;;;;;22.72;80.97;98991.70;1338697;105;21198;-70
2021/06/09 15:17:27;;;;;;;5.28;4.75;;;;;;;22.17;83.87;98983.62;1355387;104;21228;-71
2021/06/09 15:21:19;;;;;;;8.05;4.75;;;;;;;21.93;86.35;98985.28;1328125;106;21141;-70
2021/06/09 15:24:16;;;;;;;6.87;5.30;;;;;;;21.86;86.77;98984.27;1382326;102;21475;-70
2021/06/09 15:26:46;;;;;;;6.95;5.67;;;;;;;21.57;90.02;98995.06;1369514;102;21088;-70
2021/06/09 15:29:15;;;;;;;8.65;5.80;;;;;;;21.24;93.98;98990.20;1375024;102;21143;-69
2021/06/09 15:31:43;;;;;;;5.80;5.25;;;;;;;21.24;95.47;98975.19;1366834;101;21569;-69
2021/06/09 15:34:10;;;;;;;9.38;5.53;;;;;;;21.09;97.68;98980.20;1392023;100;21209;-69
2021/06/09 15:36:38;;;;;;;8.45;5.33;;;;;;;20.89;100.00;98975.00;1391563;101;21702;-69
2021/06/09 15:39:09;;;;;;;8.08;4.37;;;;;;;20.85;100.00;98985.55;1398119;100;21187;-70
2021/06/09 15:41:37;;;;;;;5.80;4.53;;;;;;;20.87;96.84;98990.92;1414538;98;21517;-69
2021/06/09 15:44:05;;;;;;;9.10;5.60;;;;;;;21.24;92.37;98986.93;1489822;93;20977;-68
2021/06/09 15:46:32;;;;;;;10.20;5.55;;;;;;;21.60;89.95;98968.43;1563242;87;21083;-69
2021/06/09 15:48:59;;;;;;;6.60;4.40;;;;;;;21.81;87.29;98968.32;1649979;86;21130;-68
2021/06/09 15:51:26;;;;;;;12.70;5.03;;;;;;;21.78;87.04;98975.84;1664173;85;20951;-69
2021/06/09 15:53:54;;;;;;;7.25;4.70;;;;;;;21.44;85.21;98973.56;1639865;86;21402;-69
2021/06/09 15:56:21;;;;;;;6.65;4.37;;;;;;;20.96;88.13;98964.34;1662952;86;21432;-68
2021/06/09 16:06:21;;;;;;;4.78;4.15;;;;;;;19.60;99.33;98957.89;1691536;83;20901;-69
2021/06/09 16:08:51;;;;;;;5.07;4.57;;;;;;;19.14;100.00;98951.92;1695264;82;21028;-70
2021/06/09 16:11:19;;;;;;;8.80;4.47;;;;;;;18.90;100.00;98954.61;1700353;83;20896;-70
2021/06/09 16:13:49;;;;;;;7.12;5.37;;;;;;;18.74;100.00;98947.52;1698270;83;21398;-71
2021/06/09 16:16:27;;;;;;;10.95;4.78;;;;;;;18.59;100.00;98944.73;1660665;85;22123;-71
2021/06/09 16:18:54;;;;;;;10.95;5.05;;;;;;;18.46;100.00;98948.41;1653405;85;21095;-71
2021/06/09 16:21:23;;;;;;;5.23;4.73;;;;;;;18.37;100.00;98950.33;1654182;85;21047;-71
2021/06/09 16:23:52;;;;;;;8.15;4.65;;;;;;;18.26;100.00;98950.42;1657270;85;21050;-69
2021/06/09 16:26:21;;;;;;;5.12;4.60;;;;;;;18.16;100.00;98953.69;1648532;85;21108;-69
2021/06/09 16:28:50;;;;;;;8.80;5.67;;;;;;;18.09;100.00;98952.56;1660750;84;21104;-69
2021/06/09 16:31:18;;;;;;;5.33;4.83;;;;;;;18.04;100.00;98947.29;1642482;86;21086;-69
2021/06/09 16:33:45;;;;;;;;;;;;;;;17.99;100.00;98950.95;1649939;85;21497;-70
2021/06/09 16:36:15;;;;;;;12.63;5.45;;;;;;;17.96;100.00;98948.31;1638862;85;20514;-69
2021/06/09 16:38:42;;;;;;;8.58;5.22;;;;;;;17.94;100.00;98949.75;1653716;85;21005;-69
2021/06/09 16:41:16;;;;;;;8.78;4.50;;;;;;;17.95;100.00;98941.83;1669055;84;20862;-71
2021/06/09 16:43:43;;;;;;;9.48;5.30;;;;;;;17.94;100.00;98941.60;1656305;84;20873;-70
2021/06/09 16:46:11;;;;;;;8.43;4.12;;;;;;;17.95;100.00;98937.77;1659684;85;21431;-70
2021/06/09 16:48:40;;;;;;;8.13;5.20;;;;;;;17.96;100.00;98933.95;1641919;85;21061;-71
2021/06/09 16:51:09;;;;;;;6.47;4.60;;;;;;;17.97;100.00;98932.81;1623032;86;21056;-70
2021/06/09 16:53:37;;;;;;;5.15;4.28;;;;;;;17.98;100.00;98935.76;1642763;85;21332;-71
2021/06/09 16:56:38;;;;;;;9.45;4.37;;;;;;;17.99;100.00;98932.73;1658467;84;20988;-70
2021/06/09 16:59:02;;;;;;;14.47;5.60;;;;;;;18.03;100.00;98938.35;1603954;88;21463;-72
2021/06/09 17:01:29;;;;;;;7.95;5.10;;;;;;;18.07;100.00;98932.50;1614285;88;21054;-71
2021/06/09 17:03:56;;;;;;;9.03;4.58;;;;;;;18.10;100.00;98936.50;1608516;88;20978;-68
2021/06/09 17:06:23;;;;;;;8.50;5.22;;;;;;;18.12;100.00;98928.84;1601736;88;21136;-68
2021/06/09 17:08:50;;;;;;;6.80;4.60;;;;;;;18.08;100.00;98923.25;1604305;87;20959;-68
2021/06/09 17:11:18;;;;;;;6.72;4.65;;;;;;;18.07;100.00;98918.92;1589322;88;21114;-68
2021/06/09 17:13:45;;;;;;;5.25;4.60;;;;;;;18.06;100.00;98915.19;1616132;86;20910;-69
2021/06/09 17:16:12;;;;;;;6.83;5.08;;;;;;;18.03;100.00;98921.23;1617359;88;21430;-69
2021/06/09 17:18:40;;;;;;;6.87;4.70;;;;;;;18.00;100.00;98926.74;1586984;88;20962;-68